METAR: CYYC 072200Z 17005KT 120V210 15SM FEW220 21/03 A3032 RMK CI1 HZ / CONTRAILS SLP281 DENSITY ALT 4700FT

TAF: CYYC 072040Z 0721/0818 VRB03KT P6SM FEW220 BECMG 0721/0722 16010KT BECMG 0805/0807 30005KT FM081600 02008KT P6SM SKC RMK NXT FCST BY 080000Z